Pagina principală
METAR-TAF:

METAR-TAF

Aeroporturi :

Arlington Municipal Airport

Arlington, Texas, Statele Unite ale Americii

Latitudine: 32-39-50N, longitudine: 097-05-45W, elevație: 192 m

Observații meteo curente

Raportul a fost făcut în urmă cu 1 oră și 2 de minute, la 20:53 UTC
Vânt 8 kt de la Sud cu rafale de până la 15 kt
Temperatură 34°C
Umiditate 41%
Presiune 1016 hPa
Vizibilitate: 16.1 km
Cer senin

METAR: KGKY 222053Z 17008G15KT 10SM CLR 34/19 A2999 RMK AO2 SLP144 T03440194 56022

Ora: 16:55 (21:55 UTC)

Prognoză

Raportul a fost făcut în urmă cu 55 de minute, la 21:00 UTC
Prognoză valabilă de la 22 ora 21 UTC la 23 ora 18 UTC
Vânt 11 kt de la Sud
Vizibilitate: 10 km
Nori împrăștiați la o înălțime de 6000 picior
De la 23 ora 0000 UTC
Vânt 7 kt de la Sud
Vizibilitate: 10 km
Cer senin

TAF: KGKY 222100Z 2221/2318 17011KT P6SM SCT060 FM230000 17007KT P6SM SKC

Observații și prognoze meteo pentru peste 4.000 de aeroporturi (rapoarte METAR și TAF).

Stațiile disponibile sunt reprezentate pe hartă prin puncte galbene și roșii.

Țineți indicatorul mouse-ului pe punctul dorit pentru a vedea denumirea stației.

Apoi, faceți clic pentru a vedea observațiile și prognozele meteorologice.

Pentru a schimba harta: Pentru mărire, faceți clic pe butoanele verzi cu cruce neagră; pentru micșorare, pe butonul verde cu o liniuță; pentru hărți învecinate, pe săgețile verzi.


METAR-TAF: